Sveva — IBEU — position and weather

sailwx.info

Track history (hours):
 
Tides and Currents Weather Stations Pressure Air Temp Water Temp Dewpoint Dewpoint Depression Visibility Wind Speed Wind Dir Waves Ship Positions

Sveva

Last reported at 2016-Aug-29 07:30 UTC. Time now 2016-Aug-29 12:58 UTC.
Position S 24°01' W 043°02'.

Length 136 m; draft 8.7 m.

Type: Ship (hazmat cat C). MMSI: 247359000.

Date/timePositionNaut miles runAvg speedWind from/ knotsBaromVisibWave heightAir tempDewpointWater temp
2016-Aug-29 07:30S 24°01' W 043°02'10 9.8
2016-Aug-29 06:27S 24°03' W 043°13'9 9.7
2016-Aug-29 05:33S 24°03' W 043°23'10 9.6
2016-Aug-29 04:33S 24°03' W 043°33'10 9.9
2016-Aug-29 03:33S 24°05' W 043°44'1210.2
2016-Aug-29 02:22S 24°06' W 043°57'810.4
2016-Aug-29 01:33S 24°07' W 044°06'1010.5
2016-Aug-29 00:33S 24°09' W 044°18'1110.6
2016-Aug-28 23:33S 24°10' W 044°29'1110.5
2016-Aug-28 22:33S 24°12' W 044°41'1111.0
2016-Aug-28 21:33S 24°13' W 044°52'1111.2
2016-Aug-28 20:33S 24°15' W 045°05'1111.1
2016-Aug-28 19:33S 24°17' W 045°17'1110.5
2016-Aug-28 18:33S 24°19' W 045°28'1010.4
2016-Aug-28 17:33S 24°20' W 045°39'1111.1
2016-Aug-28 16:33S 24°21' W 045°51'1111.2
2016-Aug-28 15:33S 24°22' W 046°04'1111.3
2016-Aug-28 14:33S 24°21' W 046°16'1211.6
2016-Aug-28 13:33S 24°10' W 046°22'1110.5
2016-Aug-28 12:33S 24°00' W 046°20'4 0.1
2016-Aug-26 22:26S 23°56' W 046°19'6 6.4
2016-Aug-26 21:33S 24°01' W 046°21'8 7.6
2016-Aug-26 20:33S 24°09' W 046°22'7 6.7
2016-Aug-26 19:32S 24°13' W 046°16'0 0.0
2016-Aug-26 18:32S 24°13' W 046°16'0 0.0
2016-Aug-26 17:32S 24°13' W 046°16'0 0.0
2016-Aug-26 16:29S 24°13' W 046°16'0 0.0
2016-Aug-26 15:32S 24°13' W 046°16'0 0.1
2016-Aug-26 14:32S 24°13' W 046°16'0 0.1
2016-Aug-26 13:32S 24°13' W 046°16'0 0.0
2016-Aug-26 12:32S 24°13' W 046°16'0 0.0
2016-Aug-26 11:26S 24°13' W 046°16'0 0.0
2016-Aug-26 10:26S 24°13' W 046°16'0 0.0
2016-Aug-26 09:32S 24°13' W 046°16'0 0.0
2016-Aug-26 08:32S 24°13' W 046°16'0 0.0
2016-Aug-26 07:32S 24°13' W 046°16'0 0.0
2016-Aug-26 06:32S 24°13' W 046°16'0 0.0
2016-Aug-26 04:32S 24°13' W 046°16'0 0.0
2016-Aug-26 03:32S 24°13' W 046°16'0 0.0
2016-Aug-26 02:32S 24°13' W 046°16'0 0.0
2016-Aug-26 01:32S 24°13' W 046°16'0 0.0
2016-Aug-26 00:32S 24°13' W 046°16'0 0.0
2016-Aug-25 23:32S 24°13' W 046°16'8 7.7
2016-Aug-25 22:33S 24°21' W 046°14'13 5.9
2016-Aug-25 20:23S 24°29' W 046°04'2 1.2
2016-Aug-25 18:29S 24°29' W 046°01'1 1.3
2016-Aug-25 17:23S 24°29' W 045°60'3 1.3
2016-Aug-25 15:11S 24°28' W 045°56'1 1.4
2016-Aug-25 14:23S 24°28' W 045°55'5 0.4
2016-Aug-25 02:09S 24°32' W 045°59'610.5
2016-Aug-25 01:32S 24°34' W 046°06'1110.7
2016-Aug-25 00:33S 24°38' W 046°17'14 1.6
2016-Aug-24 15:31S 24°51' W 046°23'1111.8
2016-Aug-24 14:33S 24°39' W 046°24'1212.0
2016-Aug-24 13:33S 24°27' W 046°25'1111.1
2016-Aug-24 12:33S 24°17' W 046°20'7 7.0
2016-Aug-24 11:33S 24°13' W 046°14'0 0.1
2016-Aug-24 10:27S 24°13' W 046°14'0 0.0
2016-Aug-24 09:33S 24°13' W 046°14'0 0.0
2016-Aug-24 08:27S 24°13' W 046°14'0 0.0
2016-Aug-24 07:33S 24°13' W 046°14'0 0.0
2016-Aug-24 06:34S 24°13' W 046°14'0 0.0
2016-Aug-24 04:33S 24°13' W 046°14'0 0.0
2016-Aug-24 03:33S 24°13' W 046°14'0 0.0
2016-Aug-24 02:30S 24°13' W 046°14'0 0.0
2016-Aug-24 01:27S 24°13' W 046°14'0 0.0
2016-Aug-24 00:33S 24°13' W 046°14'0 0.0
2016-Aug-23 23:33S 24°13' W 046°14'0 0.0
2016-Aug-23 22:33S 24°13' W 046°14'0 0.0
2016-Aug-23 21:33S 24°13' W 046°14'0 0.0
2016-Aug-23 20:33S 24°13' W 046°14'0 0.0
2016-Aug-23 19:33S 24°13' W 046°14'0 0.0
2016-Aug-23 18:33S 24°13' W 046°14'0 0.0
2016-Aug-23 17:33S 24°13' W 046°14'0 0.0
2016-Aug-23 16:33S 24°13' W 046°14'0 0.0
2016-Aug-23 15:27S 24°13' W 046°14'0 0.0
2016-Aug-23 14:24S 24°13' W 046°14'0 0.0
2016-Aug-23 13:27S 24°13' W 046°14'0 0.0
2016-Aug-23 12:33S 24°13' W 046°14'0 0.0
2016-Aug-23 11:33S 24°13' W 046°14'0 0.0
2016-Aug-23 10:33S 24°13' W 046°14'0 0.0
2016-Aug-23 09:33S 24°13' W 046°14'0 0.0
2016-Aug-23 08:27S 24°13' W 046°14'0 0.0
2016-Aug-23 07:30S 24°13' W 046°14'0 0.0
2016-Aug-23 06:33S 24°13' W 046°14'0 0.0
2016-Aug-23 05:30S 24°13' W 046°14'0 0.0
2016-Aug-23 04:33S 24°13' W 046°14'0 0.0
2016-Aug-23 03:33S 24°13' W 046°14'0 0.0
2016-Aug-23 02:33S 24°13' W 046°14'0 0.0
2016-Aug-23 01:33S 24°13' W 046°14'0 0.0
2016-Aug-23 00:33S 24°13' W 046°14'0 0.0
2016-Aug-22 23:33S 24°13' W 046°14'0 0.0
2016-Aug-22 22:33S 24°13' W 046°14'0 0.0
2016-Aug-22 21:33S 24°13' W 046°14'0 0.0
2016-Aug-22 20:33S 24°13' W 046°14'0 0.0
2016-Aug-22 19:33S 24°13' W 046°14'0 0.0
2016-Aug-22 18:33S 24°13' W 046°14'0 0.0
2016-Aug-22 17:33S 24°13' W 046°14'0 0.0
2016-Aug-22 16:33S 24°13' W 046°14'7 6.8
2016-Aug-22 15:33S 24°19' W 046°16'26 6.1
2016-Aug-22 11:19S 24°45' W 046°18'4 4.5
2016-Aug-22 10:33S 24°41' W 046°18'4 4.0
2016-Aug-22 09:26S 24°37' W 046°18'3 3.8
2016-Aug-22 08:33S 24°34' W 046°18'3 3.4
2016-Aug-22 07:33S 24°30' W 046°18'3 3.4
2016-Aug-22 06:33S 24°27' W 046°18'3 2.9
2016-Aug-22 05:33S 24°24' W 046°19'3 2.6
2016-Aug-22 04:33S 24°21' W 046°20'2 2.0
2016-Aug-22 03:33S 24°20' W 046°21'2 2.1
2016-Aug-22 02:33S 24°18' W 046°22'2 1.6
2016-Aug-22 01:33S 24°16' W 046°22'2 1.5
2016-Aug-22 00:33S 24°15' W 046°22'2 1.6
2016-Aug-21 23:33S 24°13' W 046°22'2 2.2
2016-Aug-21 22:33S 24°11' W 046°21'2 2.2
2016-Aug-21 21:33S 24°10' W 046°19'2 2.0
2016-Aug-21 20:33S 24°09' W 046°17'2 1.7
2016-Aug-21 19:32S 24°08' W 046°16'1 0.8
2016-Aug-21 18:31S 24°08' W 046°16'1 0.8
2016-Aug-21 17:32S 24°09' W 046°17'0 0.0
2016-Aug-21 16:23S 24°09' W 046°17'0 0.0
2016-Aug-21 15:32S 24°09' W 046°17'0 0.0
2016-Aug-21 14:32S 24°09' W 046°17'0 0.0
2016-Aug-21 13:32S 24°09' W 046°17'0 0.1
2016-Aug-21 12:32S 24°09' W 046°17'0 0.1
2016-Aug-21 11:32S 24°09' W 046°17'0 0.1
2016-Aug-21 10:32S 24°09' W 046°17'0 0.0
2016-Aug-21 09:32S 24°09' W 046°17'0 0.0
2016-Aug-21 08:32S 24°09' W 046°17'0 0.0
2016-Aug-21 07:32S 24°09' W 046°17'0 0.0
2016-Aug-21 06:32S 24°09' W 046°17'0 0.0
2016-Aug-21 05:32S 24°09' W 046°17'0 0.0
2016-Aug-21 04:32S 24°09' W 046°17'0 0.1
2016-Aug-21 03:32S 24°09' W 046°17'0 0.0
2016-Aug-21 02:26S 24°09' W 046°17'0 0.0
2016-Aug-21 01:32S 24°09' W 046°17'0 0.0
2016-Aug-21 00:32S 24°09' W 046°17'0 0.0
2016-Aug-20 23:32S 24°09' W 046°17'0 0.0
2016-Aug-20 22:32S 24°09' W 046°17'0 0.0
2016-Aug-20 21:32S 24°09' W 046°17'0 0.0
2016-Aug-20 20:32S 24°09' W 046°17'0 0.1
2016-Aug-20 19:32S 24°09' W 046°17'0 0.0
2016-Aug-20 18:26S 24°09' W 046°17'0 0.0
2016-Aug-20 17:32S 24°09' W 046°17'0 0.0
2016-Aug-20 16:32S 24°09' W 046°17'0 0.0
2016-Aug-20 15:32S 24°09' W 046°17'0 0.0
2016-Aug-20 14:32S 24°09' W 046°17'0 0.0
2016-Aug-20 13:32S 24°09' W 046°17'0 0.0
2016-Aug-20 12:32S 24°09' W 046°17'0 0.0
2016-Aug-20 11:32S 24°09' W 046°17'0 0.0
2016-Aug-20 10:32S 24°09' W 046°17'0 0.0
2016-Aug-20 09:32S 24°09' W 046°17'0 0.0
2016-Aug-20 08:32S 24°09' W 046°17'0 0.0
2016-Aug-20 07:32S 24°09' W 046°17'0 0.0
2016-Aug-20 06:32S 24°09' W 046°17'0 0.0
2016-Aug-20 05:32S 24°09' W 046°17'0 0.0
2016-Aug-20 04:32S 24°09' W 046°17'0 0.0
2016-Aug-20 03:32S 24°09' W 046°17'0 0.0
2016-Aug-20 02:32S 24°09' W 046°17'0 0.0
2016-Aug-20 01:32S 24°09' W 046°17'0 0.0
2016-Aug-20 00:29S 24°09' W 046°17'0 0.0
2016-Aug-19 23:32S 24°09' W 046°17'0 0.0
2016-Aug-19 22:32S 24°09' W 046°17'0 0.0
2016-Aug-19 21:32S 24°09' W 046°17'0 0.0
2016-Aug-19 20:32S 24°09' W 046°17'0 0.0
2016-Aug-19 19:32S 24°09' W 046°17'0 0.0
2016-Aug-19 18:26S 24°09' W 046°17'0 0.0
2016-Aug-19 17:32S 24°09' W 046°17'0 0.0
2016-Aug-19 16:32S 24°09' W 046°17'0 0.0
2016-Aug-19 15:32S 24°09' W 046°17'0 0.0
2016-Aug-19 14:32S 24°09' W 046°17'0 0.0
2016-Aug-19 13:26S 24°09' W 046°17'0 0.0
2016-Aug-19 12:32S 24°09' W 046°17'0 0.0
2016-Aug-19 11:32S 24°09' W 046°17'0 0.0
2016-Aug-19 10:32S 24°09' W 046°17'0 0.0
2016-Aug-19 09:23S 24°09' W 046°17'0 0.1
2016-Aug-19 08:32S 24°09' W 046°17'0 0.0
2016-Aug-19 07:32S 24°09' W 046°17'  
Track history (hours):
 
Tides and Currents Weather Stations Pressure Air Temp Water Temp Dewpoint Dewpoint Depression Visibility Wind Speed Wind Dir Waves Ship Positions

Sveva

Last reported at 2016-Aug-29 07:30 UTC. Time now 2016-Aug-29 12:58 UTC.
Position S 24°01' W 043°02'.

Length 136 m; draft 8.7 m.

Type: Ship (hazmat cat C). MMSI: 247359000.

Date/timePositionNaut miles runAvg speedWind from/ knotsBaromVisibWave heightAir tempDewpointWater temp
2016-Aug-29 07:30S 24°01' W 043°02'10 9.8
2016-Aug-29 06:27S 24°03' W 043°13'9 9.7
2016-Aug-29 05:33S 24°03' W 043°23'10 9.6
2016-Aug-29 04:33S 24°03' W 043°33'10 9.9
2016-Aug-29 03:33S 24°05' W 043°44'1210.2
2016-Aug-29 02:22S 24°06' W 043°57'810.4
2016-Aug-29 01:33S 24°07' W 044°06'1010.5
2016-Aug-29 00:33S 24°09' W 044°18'1110.6
2016-Aug-28 23:33S 24°10' W 044°29'1110.5
2016-Aug-28 22:33S 24°12' W 044°41'1111.0
2016-Aug-28 21:33S 24°13' W 044°52'1111.2
2016-Aug-28 20:33S 24°15' W 045°05'1111.1
2016-Aug-28 19:33S 24°17' W 045°17'1110.5
2016-Aug-28 18:33S 24°19' W 045°28'1010.4
2016-Aug-28 17:33S 24°20' W 045°39'1111.1
2016-Aug-28 16:33S 24°21' W 045°51'1111.2
2016-Aug-28 15:33S 24°22' W 046°04'1111.3
2016-Aug-28 14:33S 24°21' W 046°16'1211.6
2016-Aug-28 13:33S 24°10' W 046°22'1110.5
2016-Aug-28 12:33S 24°00' W 046°20'4 0.1
2016-Aug-26 22:26S 23°56' W 046°19'6 6.4
2016-Aug-26 21:33S 24°01' W 046°21'8 7.6
2016-Aug-26 20:33S 24°09' W 046°22'7 6.7
2016-Aug-26 19:32S 24°13' W 046°16'0 0.0
2016-Aug-26 18:32S 24°13' W 046°16'0 0.0
2016-Aug-26 17:32S 24°13' W 046°16'0 0.0
2016-Aug-26 16:29S 24°13' W 046°16'0 0.0
2016-Aug-26 15:32S 24°13' W 046°16'0 0.1
2016-Aug-26 14:32S 24°13' W 046°16'0 0.1
2016-Aug-26 13:32S 24°13' W 046°16'0 0.0
2016-Aug-26 12:32S 24°13' W 046°16'0 0.0
2016-Aug-26 11:26S 24°13' W 046°16'0 0.0
2016-Aug-26 10:26S 24°13' W 046°16'0 0.0
2016-Aug-26 09:32S 24°13' W 046°16'0 0.0
2016-Aug-26 08:32S 24°13' W 046°16'0 0.0
2016-Aug-26 07:32S 24°13' W 046°16'0 0.0
2016-Aug-26 06:32S 24°13' W 046°16'0 0.0
2016-Aug-26 04:32S 24°13' W 046°16'0 0.0
2016-Aug-26 03:32S 24°13' W 046°16'0 0.0
2016-Aug-26 02:32S 24°13' W 046°16'0 0.0
2016-Aug-26 01:32S 24°13' W 046°16'0 0.0
2016-Aug-26 00:32S 24°13' W 046°16'0 0.0
2016-Aug-25 23:32S 24°13' W 046°16'8 7.7
2016-Aug-25 22:33S 24°21' W 046°14'13 5.9
2016-Aug-25 20:23S 24°29' W 046°04'2 1.2
2016-Aug-25 18:29S 24°29' W 046°01'1 1.3
2016-Aug-25 17:23S 24°29' W 045°60'3 1.3
2016-Aug-25 15:11S 24°28' W 045°56'1 1.4
2016-Aug-25 14:23S 24°28' W 045°55'5 0.4
2016-Aug-25 02:09S 24°32' W 045°59'610.5
2016-Aug-25 01:32S 24°34' W 046°06'1110.7
2016-Aug-25 00:33S 24°38' W 046°17'14 1.6
2016-Aug-24 15:31S 24°51' W 046°23'1111.8
2016-Aug-24 14:33S 24°39' W 046°24'1212.0
2016-Aug-24 13:33S 24°27' W 046°25'1111.1
2016-Aug-24 12:33S 24°17' W 046°20'7 7.0
2016-Aug-24 11:33S 24°13' W 046°14'0 0.1
2016-Aug-24 10:27S 24°13' W 046°14'0 0.0
2016-Aug-24 09:33S 24°13' W 046°14'0 0.0
2016-Aug-24 08:27S 24°13' W 046°14'0 0.0
2016-Aug-24 07:33S 24°13' W 046°14'0 0.0
2016-Aug-24 06:34S 24°13' W 046°14'0 0.0
2016-Aug-24 04:33S 24°13' W 046°14'0 0.0
2016-Aug-24 03:33S 24°13' W 046°14'0 0.0
2016-Aug-24 02:30S 24°13' W 046°14'0 0.0
2016-Aug-24 01:27S 24°13' W 046°14'0 0.0
2016-Aug-24 00:33S 24°13' W 046°14'0 0.0
2016-Aug-23 23:33S 24°13' W 046°14'0 0.0
2016-Aug-23 22:33S 24°13' W 046°14'0 0.0
2016-Aug-23 21:33S 24°13' W 046°14'0 0.0
2016-Aug-23 20:33S 24°13' W 046°14'0 0.0
2016-Aug-23 19:33S 24°13' W 046°14'0 0.0
2016-Aug-23 18:33S 24°13' W 046°14'0 0.0
2016-Aug-23 17:33S 24°13' W 046°14'0 0.0
2016-Aug-23 16:33S 24°13' W 046°14'0 0.0
2016-Aug-23 15:27S 24°13' W 046°14'0 0.0
2016-Aug-23 14:24S 24°13' W 046°14'0 0.0
2016-Aug-23 13:27S 24°13' W 046°14'0 0.0
2016-Aug-23 12:33S 24°13' W 046°14'0 0.0
2016-Aug-23 11:33S 24°13' W 046°14'0 0.0
2016-Aug-23 10:33S 24°13' W 046°14'0 0.0
2016-Aug-23 09:33S 24°13' W 046°14'0 0.0
2016-Aug-23 08:27S 24°13' W 046°14'0 0.0
2016-Aug-23 07:30S 24°13' W 046°14'0 0.0
2016-Aug-23 06:33S 24°13' W 046°14'0 0.0
2016-Aug-23 05:30S 24°13' W 046°14'0 0.0
2016-Aug-23 04:33S 24°13' W 046°14'0 0.0
2016-Aug-23 03:33S 24°13' W 046°14'0 0.0
2016-Aug-23 02:33S 24°13' W 046°14'0 0.0
2016-Aug-23 01:33S 24°13' W 046°14'0 0.0
2016-Aug-23 00:33S 24°13' W 046°14'0 0.0
2016-Aug-22 23:33S 24°13' W 046°14'0 0.0
2016-Aug-22 22:33S 24°13' W 046°14'0 0.0
2016-Aug-22 21:33S 24°13' W 046°14'0 0.0
2016-Aug-22 20:33S 24°13' W 046°14'0 0.0
2016-Aug-22 19:33S 24°13' W 046°14'0 0.0
2016-Aug-22 18:33S 24°13' W 046°14'0 0.0
2016-Aug-22 17:33S 24°13' W 046°14'0 0.0
2016-Aug-22 16:33S 24°13' W 046°14'7 6.8
2016-Aug-22 15:33S 24°19' W 046°16'26 6.1
2016-Aug-22 11:19S 24°45' W 046°18'4 4.5
2016-Aug-22 10:33S 24°41' W 046°18'4 4.0
2016-Aug-22 09:26S 24°37' W 046°18'3 3.8
2016-Aug-22 08:33S 24°34' W 046°18'3 3.4
2016-Aug-22 07:33S 24°30' W 046°18'3 3.4
2016-Aug-22 06:33S 24°27' W 046°18'3 2.9
2016-Aug-22 05:33S 24°24' W 046°19'3 2.6
2016-Aug-22 04:33S 24°21' W 046°20'2 2.0
2016-Aug-22 03:33S 24°20' W 046°21'2 2.1
2016-Aug-22 02:33S 24°18' W 046°22'2 1.6
2016-Aug-22 01:33S 24°16' W 046°22'2 1.5
2016-Aug-22 00:33S 24°15' W 046°22'2 1.6
2016-Aug-21 23:33S 24°13' W 046°22'2 2.2
2016-Aug-21 22:33S 24°11' W 046°21'2 2.2
2016-Aug-21 21:33S 24°10' W 046°19'2 2.0
2016-Aug-21 20:33S 24°09' W 046°17'2 1.7
2016-Aug-21 19:32S 24°08' W 046°16'1 0.8
2016-Aug-21 18:31S 24°08' W 046°16'1 0.8
2016-Aug-21 17:32S 24°09' W 046°17'0 0.0
2016-Aug-21 16:23S 24°09' W 046°17'0 0.0
2016-Aug-21 15:32S 24°09' W 046°17'0 0.0
2016-Aug-21 14:32S 24°09' W 046°17'0 0.0
2016-Aug-21 13:32S 24°09' W 046°17'0 0.1
2016-Aug-21 12:32S 24°09' W 046°17'0 0.1
2016-Aug-21 11:32S 24°09' W 046°17'0 0.1
2016-Aug-21 10:32S 24°09' W 046°17'0 0.0
2016-Aug-21 09:32S 24°09' W 046°17'0 0.0
2016-Aug-21 08:32S 24°09' W 046°17'0 0.0
2016-Aug-21 07:32S 24°09' W 046°17'0 0.0
2016-Aug-21 06:32S 24°09' W 046°17'0 0.0
2016-Aug-21 05:32S 24°09' W 046°17'0 0.0
2016-Aug-21 04:32S 24°09' W 046°17'0 0.1
2016-Aug-21 03:32S 24°09' W 046°17'0 0.0
2016-Aug-21 02:26S 24°09' W 046°17'0 0.0
2016-Aug-21 01:32S 24°09' W 046°17'0 0.0
2016-Aug-21 00:32S 24°09' W 046°17'0 0.0
2016-Aug-20 23:32S 24°09' W 046°17'0 0.0
2016-Aug-20 22:32S 24°09' W 046°17'0 0.0
2016-Aug-20 21:32S 24°09' W 046°17'0 0.0
2016-Aug-20 20:32S 24°09' W 046°17'0 0.1
2016-Aug-20 19:32S 24°09' W 046°17'0 0.0
2016-Aug-20 18:26S 24°09' W 046°17'0 0.0
2016-Aug-20 17:32S 24°09' W 046°17'0 0.0
2016-Aug-20 16:32S 24°09' W 046°17'0 0.0
2016-Aug-20 15:32S 24°09' W 046°17'0 0.0
2016-Aug-20 14:32S 24°09' W 046°17'0 0.0
2016-Aug-20 13:32S 24°09' W 046°17'0 0.0
2016-Aug-20 12:32S 24°09' W 046°17'0 0.0
2016-Aug-20 11:32S 24°09' W 046°17'0 0.0
2016-Aug-20 10:32S 24°09' W 046°17'0 0.0
2016-Aug-20 09:32S 24°09' W 046°17'0 0.0
2016-Aug-20 08:32S 24°09' W 046°17'0 0.0
2016-Aug-20 07:32S 24°09' W 046°17'0 0.0
2016-Aug-20 06:32S 24°09' W 046°17'0 0.0
2016-Aug-20 05:32S 24°09' W 046°17'0 0.0
2016-Aug-20 04:32S 24°09' W 046°17'0 0.0
2016-Aug-20 03:32S 24°09' W 046°17'0 0.0
2016-Aug-20 02:32S 24°09' W 046°17'0 0.0
2016-Aug-20 01:32S 24°09' W 046°17'0 0.0
2016-Aug-20 00:29S 24°09' W 046°17'0 0.0
2016-Aug-19 23:32S 24°09' W 046°17'0 0.0
2016-Aug-19 22:32S 24°09' W 046°17'0 0.0
2016-Aug-19 21:32S 24°09' W 046°17'0 0.0
2016-Aug-19 20:32S 24°09' W 046°17'0 0.0
2016-Aug-19 19:32S 24°09' W 046°17'0 0.0
2016-Aug-19 18:26S 24°09' W 046°17'0 0.0
2016-Aug-19 17:32S 24°09' W 046°17'0 0.0
2016-Aug-19 16:32S 24°09' W 046°17'0 0.0
2016-Aug-19 15:32S 24°09' W 046°17'0 0.0
2016-Aug-19 14:32S 24°09' W 046°17'0 0.0
2016-Aug-19 13:26S 24°09' W 046°17'0 0.0
2016-Aug-19 12:32S 24°09' W 046°17'0 0.0
2016-Aug-19 11:32S 24°09' W 046°17'0 0.0
2016-Aug-19 10:32S 24°09' W 046°17'0 0.0
2016-Aug-19 09:23S 24°09' W 046°17'0 0.1
2016-Aug-19 08:32S 24°09' W 046°17'0 0.0
2016-Aug-19 07:32S 24°09' W 046°17'  

Dump ship's entire track history